createdAt,value
2023-01-29T00:01:39.646Z,101894.34
2023-01-29T00:04:09.090Z,101895.50
2023-01-29T00:06:36.099Z,101898.16
2023-01-29T00:09:03.107Z,101901.53
2023-01-29T00:11:31.505Z,101898.97
2023-01-29T00:13:58.970Z,101898.97
2023-01-29T00:16:25.971Z,101899.13
2023-01-29T00:18:53.004Z,101891.97
2023-01-29T00:21:22.411Z,101898.97
2023-01-29T00:23:50.159Z,101898.16
2023-01-29T00:26:18.776Z,101900.72
2023-01-29T00:28:49.625Z,101893.03
2023-01-29T00:31:20.844Z,101891.97
2023-01-29T00:33:48.768Z,101891.03
2023-01-29T00:36:17.607Z,101888.25
2023-01-29T00:38:54.737Z,101892.50
2023-01-29T00:41:41.770Z,101891.84
2023-01-29T00:44:27.284Z,101891.69
2023-01-29T00:46:54.876Z,101882.81
2023-01-29T00:49:23.259Z,101887.94
2023-01-29T00:52:09.022Z,101886.84
2023-01-29T00:54:38.183Z,101892.13
2023-01-29T00:57:05.147Z,101886.75
2023-01-29T00:59:32.251Z,101893.72
2023-01-29T01:02:17.991Z,101890.19
2023-01-29T01:04:45.091Z,101892.78
2023-01-29T01:09:57.356Z,101898.97
2023-01-29T01:12:24.363Z,101900.81
2023-01-29T01:14:51.416Z,101898.25
2023-01-29T01:17:19.609Z,101893.84
2023-01-29T01:19:46.987Z,101908.00
2023-01-29T01:22:14.028Z,101900.22
2023-01-29T01:24:40.935Z,101901.19
2023-01-29T01:27:08.187Z,101910.94
2023-01-29T01:29:35.192Z,101905.72
2023-01-29T01:32:02.484Z,101909.25
2023-01-29T01:34:30.091Z,101910.94
2023-01-29T01:36:57.171Z,101913.88
2023-01-29T01:39:25.159Z,101919.00
2023-01-29T01:41:55.963Z,101911.09
2023-01-29T01:44:53.676Z,101920.69
2023-01-29T01:47:48.287Z,101912.81
2023-01-29T01:50:30.531Z,101910.16
2023-01-29T01:53:09.812Z,101916.34
2023-01-29T01:55:50.459Z,101912.00
2023-01-29T01:58:24.416Z,101914.56
2023-01-29T02:00:54.137Z,101911.09
2023-01-29T02:03:42.857Z,101905.84
2023-01-29T02:06:29.718Z,101911.09
2023-01-29T02:09:20.762Z,101913.78
2023-01-29T02:11:47.880Z,101911.13
2023-01-29T02:14:14.916Z,101911.94
2023-01-29T02:16:42.278Z,101909.50
2023-01-29T02:19:27.901Z,101913.06
2023-01-29T02:22:07.265Z,101912.53
2023-01-29T02:25:09.874Z,101912.53
2023-01-29T02:27:49.159Z,101913.44
2023-01-29T02:30:34.423Z,101914.41
2023-01-29T02:33:22.884Z,101918.81
2023-01-29T02:36:02.993Z,101910.84
2023-01-29T02:39:15.917Z,101912.78
2023-01-29T02:42:06.251Z,101916.34
2023-01-29T02:44:42.489Z,101911.16
2023-01-29T02:47:29.686Z,101905.06
2023-01-29T02:50:06.772Z,101906.91
2023-01-29T02:52:40.080Z,101906.91
2023-01-29T02:55:13.785Z,101902.66
2023-01-29T02:57:51.032Z,101911.53
2023-01-29T03:00:24.848Z,101903.69
2023-01-29T03:02:59.713Z,101913.44
2023-01-29T03:05:34.286Z,101918.00
2023-01-29T03:08:11.370Z,101911.91
2023-01-29T03:10:44.022Z,101909.31
2023-01-29T03:13:18.600Z,101913.06
2023-01-29T03:16:01.592Z,101915.66
2023-01-29T03:18:50.987Z,101920.09
2023-01-29T03:21:43.905Z,101926.38
2023-01-29T03:24:34.006Z,101922.03
2023-01-29T03:27:22.626Z,101927.47
2023-01-29T03:30:11.309Z,101926.63
2023-01-29T03:32:54.092Z,101922.41
2023-01-29T03:35:36.674Z,101927.06
2023-01-29T03:38:07.626Z,101929.91
2023-01-29T03:40:55.994Z,101936.06
2023-01-29T03:43:35.518Z,101931.75
2023-01-29T03:46:29.439Z,101926.56
2023-01-29T03:49:16.126Z,101937.38
2023-01-29T03:52:06.044Z,101937.50
2023-01-29T03:54:43.587Z,101938.56
2023-01-29T03:57:29.264Z,101927.94
2023-01-29T04:00:06.110Z,101934.28
2023-01-29T04:02:55.680Z,101934.38
2023-01-29T04:05:29.481Z,101939.69
2023-01-29T04:08:14.685Z,101945.25
2023-01-29T04:10:45.182Z,101946.97
2023-01-29T04:13:15.928Z,101949.44
2023-01-29T04:15:50.965Z,101943.50
2023-01-29T04:18:24.766Z,101953.19
2023-01-29T04:21:07.374Z,101952.16
2023-01-29T04:23:34.705Z,101951.94
2023-01-29T04:26:28.185Z,101955.31
2023-01-29T04:29:38.222Z,101948.25
2023-01-29T04:32:23.444Z,101956.97
2023-01-29T04:35:02.722Z,101949.84
2023-01-29T04:37:50.662Z,101949.84
2023-01-29T04:40:30.919Z,101950.75
2023-01-29T04:43:08.418Z,101956.06
2023-01-29T04:45:45.225Z,101958.84
2023-01-29T04:48:27.322Z,101960.56
2023-01-29T04:51:13.135Z,101957.94
2023-01-29T04:54:11.146Z,101961.50
2023-01-29T04:56:59.870Z,101966.84
2023-01-29T04:59:35.626Z,101962.41
2023-01-29T05:02:04.249Z,101967.84
2023-01-29T05:04:34.517Z,101963.31
2023-01-29T05:07:09.074Z,101965.22
2023-01-29T05:09:37.928Z,101980.38
2023-01-29T05:12:09.229Z,101974.22
2023-01-29T05:14:38.086Z,101975.19
2023-01-29T05:17:13.870Z,101986.81
2023-01-29T05:19:40.818Z,101978.97
2023-01-29T05:22:11.185Z,101976.38
2023-01-29T05:24:38.527Z,101980.06
2023-01-29T05:27:24.547Z,101982.75
2023-01-29T05:29:52.001Z,101989.91
2023-01-29T05:32:19.172Z,101987.19
2023-01-29T05:34:46.881Z,101995.22
2023-01-29T05:37:13.769Z,101993.47
2023-01-29T05:39:40.794Z,102000.59
2023-01-29T05:42:07.851Z,102003.25
2023-01-29T05:44:34.855Z,102004.28
2023-01-29T05:47:04.470Z,102007.13
2023-01-29T05:49:31.420Z,102010.75
2023-01-29T05:51:58.338Z,102016.19
2023-01-29T05:54:25.269Z,102017.25
2023-01-29T05:56:52.187Z,102022.53
2023-01-29T05:59:19.183Z,102031.53
2023-01-29T06:01:46.088Z,102028.03
2023-01-29T06:04:13.063Z,102036.28
2023-01-29T06:06:39.950Z,102036.44
2023-01-29T06:09:06.871Z,102039.25
2023-01-29T06:11:33.806Z,102042.91
2023-01-29T06:14:00.766Z,102039.63
2023-01-29T06:16:27.713Z,102036.38
2023-01-29T06:18:54.742Z,102054.22
2023-01-29T06:21:21.677Z,102050.97
2023-01-29T06:23:48.640Z,102058.31
2023-01-29T06:26:16.141Z,102061.09
2023-01-29T06:28:43.898Z,102066.56
2023-01-29T06:31:30.421Z,102059.72
2023-01-29T06:33:59.090Z,102062.41
2023-01-29T06:36:26.073Z,102062.50
2023-01-29T06:38:53.043Z,102068.94
2023-01-29T06:41:22.954Z,102073.38
2023-01-29T06:43:50.026Z,102077.94
2023-01-29T06:46:17.610Z,102080.63
2023-01-29T06:48:44.620Z,102075.47
2023-01-29T06:51:11.690Z,102081.72
2023-01-29T06:53:40.188Z,102083.59
2023-01-29T06:56:08.130Z,102083.53
2023-01-29T06:58:38.867Z,102089.72
2023-01-29T07:01:17.381Z,102092.38
2023-01-29T07:03:52.571Z,102095.00
2023-01-29T07:06:20.397Z,102098.59
2023-01-29T07:08:47.333Z,102098.66
2023-01-29T07:11:14.291Z,102100.47
2023-01-29T07:13:41.284Z,102111.06
2023-01-29T07:16:08.248Z,102110.19
2023-01-29T07:18:35.553Z,102110.19
2023-01-29T07:21:07.948Z,102122.53
2023-01-29T07:23:35.514Z,102125.19
2023-01-29T07:26:06.738Z,102125.00
2023-01-29T07:28:38.314Z,102132.00
2023-01-29T07:31:06.109Z,102138.97
2023-01-29T07:33:34.280Z,102146.72
2023-01-29T07:36:01.717Z,102149.09
2023-01-29T07:38:28.677Z,102157.50
2023-01-29T07:40:55.753Z,102156.00
2023-01-29T07:43:24.910Z,102157.06
2023-01-29T07:45:52.294Z,102167.69
2023-01-29T07:48:19.695Z,102177.75
2023-01-29T07:50:55.600Z,102183.91
2023-01-29T07:53:22.538Z,102185.44
2023-01-29T07:55:49.550Z,102175.50
2023-01-29T07:58:16.495Z,102186.56
2023-01-29T08:00:43.881Z,102190.81
2023-01-29T08:03:20.183Z,102203.69
2023-01-29T08:05:47.608Z,102207.81
2023-01-29T08:08:14.978Z,102205.69
2023-01-29T08:10:42.476Z,102209.19
2023-01-29T08:13:09.857Z,102218.22
2023-01-29T08:15:39.049Z,102217.66
2023-01-29T08:18:06.659Z,102215.44
2023-01-29T08:20:33.787Z,102227.06
2023-01-29T08:23:08.681Z,102231.84
2023-01-29T08:25:36.067Z,102240.38
2023-01-29T08:28:02.995Z,102239.84
2023-01-29T08:30:32.253Z,102243.25
2023-01-29T08:32:59.324Z,102248.63
2023-01-29T08:35:27.249Z,102248.81
2023-01-29T08:37:55.747Z,102257.66
2023-01-29T08:40:23.026Z,102251.78
2023-01-29T08:42:49.879Z,102249.28
2023-01-29T08:45:17.221Z,102253.63
2023-01-29T08:47:50.299Z,102256.94
2023-01-29T08:50:18.416Z,102259.88
2023-01-29T08:52:46.213Z,102262.97
2023-01-29T08:55:14.143Z,102266.59
2023-01-29T08:57:41.155Z,102269.13
2023-01-29T09:00:10.175Z,102269.84
2023-01-29T09:02:37.588Z,102275.44
2023-01-29T09:05:05.559Z,102281.59
2023-01-29T09:07:32.704Z,102284.34
2023-01-29T09:09:59.752Z,102276.06
2023-01-29T09:12:26.785Z,102290.19
2023-01-29T09:14:53.767Z,102286.72
2023-01-29T09:17:20.795Z,102280.91
2023-01-29T09:19:47.686Z,102287.41
2023-01-29T09:22:14.794Z,102292.22
2023-01-29T09:24:41.697Z,102291.34
2023-01-29T09:27:10.112Z,102289.28
2023-01-29T09:29:37.851Z,102292.47
2023-01-29T09:32:05.178Z,102302.97
2023-01-29T09:34:34.381Z,102298.38
2023-01-29T09:37:01.373Z,102300.81
2023-01-29T09:39:28.319Z,102297.47
2023-01-29T09:42:20.128Z,102300.28
2023-01-29T09:45:10.299Z,102300.47
2023-01-29T09:47:37.748Z,102298.66
2023-01-29T09:50:08.182Z,102306.53
2023-01-29T09:52:38.929Z,102304.00
2023-01-29T09:55:31.216Z,102310.94
2023-01-29T09:58:06.185Z,102309.44
2023-01-29T10:00:48.232Z,102314.56
2023-01-29T10:03:42.027Z,102331.25
2023-01-29T10:06:22.633Z,102337.25
2023-01-29T10:09:26.459Z,102334.25
2023-01-29T10:12:31.257Z,102328.44
2023-01-29T10:15:06.699Z,102324.78
2023-01-29T10:18:03.835Z,102324.22
2023-01-29T10:21:15.364Z,102324.03
2023-01-29T10:23:49.350Z,102325.63
2023-01-29T10:26:18.897Z,102324.38
2023-01-29T10:28:50.797Z,102322.28
2023-01-29T10:31:25.450Z,102324.13
2023-01-29T10:34:01.906Z,102323.41
2023-01-29T10:36:58.736Z,102319.06
2023-01-29T10:39:27.037Z,102321.50
2023-01-29T10:42:14.827Z,102314.63
2023-01-29T10:45:02.463Z,102314.88
2023-01-29T10:47:41.811Z,102309.63
2023-01-29T10:50:42.420Z,102307.91
2023-01-29T10:53:41.291Z,102303.00
2023-01-29T10:56:49.335Z,102292.38
2023-01-29T10:59:36.977Z,102287.16
2023-01-29T11:02:18.156Z,102298.09
2023-01-29T11:04:46.172Z,102292.94
2023-01-29T11:07:15.818Z,102287.22
2023-01-29T11:10:00.993Z,102282.28
2023-01-29T11:12:32.222Z,102275.72
2023-01-29T11:15:24.128Z,102271.50
2023-01-29T11:18:06.078Z,102262.06
2023-01-29T11:20:34.137Z,102267.81
2023-01-29T11:23:01.042Z,102263.06
2023-01-29T11:25:29.966Z,102259.88
2023-01-29T11:28:01.868Z,102258.69
2023-01-29T11:30:41.465Z,102257.97
2023-01-29T11:33:22.637Z,102241.19
2023-01-29T11:35:52.776Z,102240.38
2023-01-29T11:38:28.358Z,102241.53
2023-01-29T11:41:07.598Z,102229.44
2023-01-29T11:43:34.626Z,102227.56
2023-01-29T11:46:07.467Z,102224.28
2023-01-29T11:48:46.222Z,102222.78
2023-01-29T11:51:25.769Z,102218.22
2023-01-29T11:54:04.415Z,102220.03
2023-01-29T11:56:40.006Z,102208.09
2023-01-29T11:59:21.325Z,102210.06
2023-01-29T12:01:48.398Z,102208.25
2023-01-29T12:04:26.397Z,102205.59
2023-01-29T12:06:54.719Z,102192.56
2023-01-29T12:09:28.333Z,102195.34
2023-01-29T12:11:55.950Z,102191.16
2023-01-29T12:14:33.622Z,102204.66
2023-01-29T12:17:15.377Z,102204.31
2023-01-29T12:20:00.044Z,102195.50
2023-01-29T12:23:02.130Z,102187.16
2023-01-29T12:25:55.269Z,102191.41
2023-01-29T12:28:37.043Z,102193.34
2023-01-29T12:31:26.704Z,102184.75
2023-01-29T12:34:16.818Z,102181.31
2023-01-29T12:36:59.583Z,102176.16
2023-01-29T12:39:27.140Z,102171.00
2023-01-29T12:42:04.740Z,102165.56
2023-01-29T12:44:43.872Z,102159.69
2023-01-29T12:47:19.775Z,102161.34
2023-01-29T12:49:53.200Z,102153.84
2023-01-29T12:52:36.675Z,102148.16
2023-01-29T12:55:13.862Z,102145.53
2023-01-29T12:58:02.271Z,102147.28
2023-01-29T13:00:43.634Z,102151.41
2023-01-29T13:03:44.406Z,102143.34
2023-01-29T13:06:22.893Z,102141.13
2023-01-29T13:08:58.119Z,102132.59
2023-01-29T13:11:34.160Z,102136.06
2023-01-29T13:14:07.422Z,102134.75
2023-01-29T13:16:41.602Z,102134.97
2023-01-29T13:19:33.350Z,102134.28
2023-01-29T13:22:05.517Z,102130.00
2023-01-29T13:24:40.995Z,102130.34
2023-01-29T13:27:20.175Z,102126.25
2023-01-29T13:29:47.399Z,102127.94
2023-01-29T13:32:22.003Z,102127.22
2023-01-29T13:34:50.710Z,102126.06
2023-01-29T13:37:38.990Z,102125.31
2023-01-29T13:40:08.383Z,102124.84
2023-01-29T13:42:46.431Z,102124.47
2023-01-29T13:45:35.736Z,102107.81
2023-01-29T13:48:32.597Z,102117.13
2023-01-29T13:51:04.864Z,102110.47
2023-01-29T13:53:38.275Z,102115.47
2023-01-29T13:56:30.182Z,102111.69
2023-01-29T13:58:58.274Z,102106.94
2023-01-29T14:01:46.957Z,102108.88
2023-01-29T14:04:22.790Z,102105.75
2023-01-29T14:06:57.674Z,102098.53
2023-01-29T14:10:09.451Z,102108.72
2023-01-29T14:12:39.819Z,102104.38
2023-01-29T14:15:19.034Z,102097.13
2023-01-29T14:18:09.258Z,102101.78
2023-01-29T14:20:47.066Z,102087.50
2023-01-29T14:23:28.142Z,102100.84
2023-01-29T14:25:55.886Z,102107.69
2023-01-29T14:28:29.953Z,102106.94
2023-01-29T14:30:57.251Z,102104.75
2023-01-29T14:33:43.600Z,102109.91
2023-01-29T14:36:14.645Z,102113.75
2023-01-29T14:38:51.147Z,102113.66
2023-01-29T14:41:34.833Z,102125.34
2023-01-29T14:44:46.868Z,102121.72
2023-01-29T14:47:28.906Z,102127.56
2023-01-29T14:49:57.986Z,102126.88
2023-01-29T14:52:44.285Z,102119.50
2023-01-29T14:55:31.235Z,102119.56
2023-01-29T14:57:59.717Z,102123.88
2023-01-29T15:00:35.062Z,102130.94
2023-01-29T15:03:12.505Z,102124.66
2023-01-29T15:05:42.096Z,102127.28
2023-01-29T15:08:30.278Z,102128.13
2023-01-29T15:11:19.519Z,102127.63
2023-01-29T15:13:50.774Z,102139.31
2023-01-29T15:16:24.454Z,102133.97
2023-01-29T15:18:57.199Z,102134.22
2023-01-29T15:21:24.094Z,102154.56
2023-01-29T15:24:04.883Z,102149.69
2023-01-29T15:26:32.221Z,102153.31
2023-01-29T15:29:05.128Z,102152.53
2023-01-29T15:31:32.572Z,102151.16
2023-01-29T15:34:06.258Z,102160.31
2023-01-29T15:36:33.591Z,102157.00
2023-01-29T15:39:09.555Z,102161.28
2023-01-29T15:41:36.545Z,102163.59
2023-01-29T15:44:04.458Z,102163.19
2023-01-29T15:46:36.641Z,102167.03
2023-01-29T15:49:10.064Z,102163.75
2023-01-29T15:51:37.113Z,102162.00
2023-01-29T15:54:09.743Z,102162.63
2023-01-29T15:56:40.392Z,102162.31
2023-01-29T15:59:16.964Z,102161.91
2023-01-29T16:01:44.099Z,102168.97
2023-01-29T16:04:20.809Z,102164.13
2023-01-29T16:06:50.653Z,102171.81
2023-01-29T16:09:26.025Z,102170.56
2023-01-29T16:11:54.859Z,102166.66
2023-01-29T16:14:25.654Z,102171.84
2023-01-29T16:16:53.002Z,102174.75
2023-01-29T16:19:29.350Z,102162.34
2023-01-29T16:22:03.394Z,102169.81
2023-01-29T16:24:32.566Z,102166.94
2023-01-29T16:27:10.056Z,102165.75
2023-01-29T16:29:37.085Z,102161.28
2023-01-29T16:32:05.488Z,102168.34
2023-01-29T16:34:37.536Z,102166.63
2023-01-29T16:37:26.672Z,102178.31
2023-01-29T16:39:53.907Z,102174.97
2023-01-29T16:42:30.499Z,102169.53
2023-01-29T16:45:05.836Z,102174.16
2023-01-29T16:47:34.670Z,102173.50
2023-01-29T16:50:20.270Z,102174.59
2023-01-29T16:53:05.761Z,102187.28
2023-01-29T16:55:37.755Z,102189.59
2023-01-29T16:58:20.228Z,102191.34
2023-01-29T17:00:51.350Z,102188.69
2023-01-29T17:03:19.944Z,102198.53
2023-01-29T17:05:47.848Z,102192.66
2023-01-29T17:08:30.134Z,102194.38
2023-01-29T17:10:57.407Z,102196.25
2023-01-29T17:13:33.397Z,102203.53
2023-01-29T17:16:05.738Z,102208.75
2023-01-29T17:18:32.754Z,102210.66
2023-01-29T17:20:59.741Z,102209.78
2023-01-29T17:23:26.982Z,102208.44
2023-01-29T17:25:54.178Z,102207.63
2023-01-29T17:28:22.017Z,102222.25
2023-01-29T17:31:04.899Z,102225.16
2023-01-29T17:33:57.405Z,102228.31
2023-01-29T17:36:24.455Z,102227.66
2023-01-29T17:38:51.295Z,102237.53
2023-01-29T17:41:30.511Z,102231.28
2023-01-29T17:43:57.614Z,102237.38
2023-01-29T17:46:24.694Z,102246.22
2023-01-29T17:48:52.614Z,102253.50
2023-01-29T17:51:19.715Z,102248.44
2023-01-29T17:53:47.476Z,102259.44
2023-01-29T17:56:24.145Z,102258.47
2023-01-29T17:58:51.067Z,102256.03
2023-01-29T18:01:17.957Z,102264.97
2023-01-29T18:03:44.949Z,102263.34
2023-01-29T18:06:29.532Z,102271.31
2023-01-29T18:08:56.980Z,102280.38
2023-01-29T18:11:23.869Z,102282.25
2023-01-29T18:13:51.381Z,102278.59
2023-01-29T18:16:21.747Z,102288.50
2023-01-29T18:18:49.415Z,102293.84
2023-01-29T18:21:17.715Z,102293.03
2023-01-29T18:23:44.757Z,102295.69
2023-01-29T18:26:12.441Z,102297.41
2023-01-29T18:28:39.506Z,102302.75
2023-01-29T18:31:06.737Z,102300.03
2023-01-29T18:33:35.265Z,102308.94
2023-01-29T18:36:05.044Z,102304.63
2023-01-29T18:38:33.497Z,102309.94
2023-01-29T18:41:10.761Z,102302.75
2023-01-29T18:43:39.146Z,102308.31
2023-01-29T18:46:06.757Z,102303.94
2023-01-29T18:48:34.403Z,102313.16
2023-01-29T18:51:01.502Z,102308.59
2023-01-29T18:53:28.420Z,102314.84
2023-01-29T18:56:00.135Z,102308.84
2023-01-29T18:58:35.780Z,102312.31
2023-01-29T19:01:10.983Z,102316.63
2023-01-29T19:03:40.611Z,102321.91
2023-01-29T19:06:10.065Z,102325.53
2023-01-29T19:08:41.129Z,102321.22
2023-01-29T19:11:09.109Z,102330.28
2023-01-29T19:13:37.130Z,102330.38
2023-01-29T19:16:08.284Z,102322.66
2023-01-29T19:18:35.446Z,102318.28
2023-01-29T19:21:07.764Z,102327.38
2023-01-29T19:23:34.773Z,102338.94
2023-01-29T19:26:01.823Z,102335.50
2023-01-29T19:28:32.140Z,102351.63
2023-01-29T19:31:05.632Z,102348.28
2023-01-29T19:33:33.231Z,102340.34
2023-01-29T19:36:02.954Z,102345.81
2023-01-29T19:38:33.701Z,102342.41
2023-01-29T19:41:07.988Z,102350.53
2023-01-29T19:43:41.560Z,102349.00
2023-01-29T19:46:14.767Z,102353.56
2023-01-29T19:48:42.572Z,102351.94
2023-01-29T19:51:11.014Z,102354.72
2023-01-29T19:53:40.210Z,102362.00
2023-01-29T19:56:16.272Z,102361.19
2023-01-29T19:58:46.153Z,102363.16
2023-01-29T20:01:34.859Z,102370.34
2023-01-29T20:04:02.279Z,102370.44
2023-01-29T20:06:33.239Z,102362.63
2023-01-29T20:09:02.368Z,102357.44
2023-01-29T20:11:29.465Z,102363.75
2023-01-29T20:14:04.565Z,102362.06
2023-01-29T20:16:34.609Z,102351.59
2023-01-29T20:19:14.282Z,102365.91
2023-01-29T20:21:45.307Z,102360.69
2023-01-29T20:24:15.672Z,102360.94
2023-01-29T20:26:43.091Z,102367.28
2023-01-29T20:29:10.075Z,102361.16
2023-01-29T20:31:39.922Z,102368.47
2023-01-29T20:34:07.036Z,102361.38
2023-01-29T20:36:34.062Z,102368.53
2023-01-29T20:39:01.099Z,102373.94
2023-01-29T20:41:28.181Z,102377.63
2023-01-29T20:43:55.087Z,102384.88
2023-01-29T20:46:22.138Z,102384.13
2023-01-29T20:49:17.257Z,102386.91
2023-01-29T20:51:47.870Z,102392.25
2023-01-29T20:54:15.106Z,102397.69
2023-01-29T20:56:42.604Z,102396.03
2023-01-29T20:59:10.713Z,102392.56
2023-01-29T21:01:37.605Z,102397.13
2023-01-29T21:04:08.560Z,102394.50
2023-01-29T21:06:35.859Z,102396.34
2023-01-29T21:09:06.107Z,102403.50
2023-01-29T21:11:33.740Z,102404.41
2023-01-29T21:14:02.014Z,102404.53
2023-01-29T21:16:29.283Z,102405.47
2023-01-29T21:18:59.769Z,102403.88
2023-01-29T21:21:26.880Z,102398.84
2023-01-29T21:23:54.361Z,102400.50
2023-01-29T21:26:23.351Z,102398.88
2023-01-29T21:28:50.592Z,102409.50
2023-01-29T21:31:17.846Z,102408.69
2023-01-29T21:33:45.395Z,102409.59
2023-01-29T21:36:12.473Z,102417.59
2023-01-29T21:38:40.063Z,102413.31
2023-01-29T21:41:09.896Z,102408.19
2023-01-29T21:43:37.742Z,102407.31
2023-01-29T21:46:11.835Z,102411.78
2023-01-29T21:48:43.414Z,102410.09
2023-01-29T21:51:10.501Z,102398.69
2023-01-29T21:53:37.514Z,102403.28
2023-01-29T21:56:05.951Z,102404.28
2023-01-29T21:58:33.052Z,102404.41
2023-01-29T22:01:35.876Z,102401.94
2023-01-29T22:03:47.669Z,102392.34
2023-01-29T22:06:15.419Z,102403.09
2023-01-29T22:08:48.509Z,102407.59
2023-01-29T22:11:15.688Z,102412.28
2023-01-29T22:13:42.730Z,102407.88
2023-01-29T22:16:09.661Z,102409.78
2023-01-29T22:18:36.599Z,102407.53
2023-01-29T22:21:03.681Z,102400.44
2023-01-29T22:23:31.960Z,102400.63
2023-01-29T22:26:03.891Z,102404.03
2023-01-29T22:28:32.191Z,102405.75
2023-01-29T22:31:03.217Z,102398.84
2023-01-29T22:33:30.566Z,102390.13
2023-01-29T22:35:58.266Z,102398.19
2023-01-29T22:38:25.595Z,102395.63
2023-01-29T22:40:57.519Z,102391.31
2023-01-29T22:43:29.495Z,102395.72
2023-01-29T22:45:59.529Z,102401.81
2023-01-29T22:48:28.484Z,102396.44
2023-01-29T22:51:10.074Z,102395.59
2023-01-29T22:53:38.648Z,102389.41
2023-01-29T22:56:06.809Z,102390.28
2023-01-29T22:58:34.444Z,102392.97
2023-01-29T23:01:02.339Z,102392.97
2023-01-29T23:03:29.348Z,102392.09
2023-01-29T23:05:56.490Z,102390.31
2023-01-29T23:08:23.448Z,102387.78
2023-01-29T23:10:50.404Z,102387.84
2023-01-29T23:13:17.453Z,102391.41
2023-01-29T23:15:44.383Z,102387.06
2023-01-29T23:18:11.368Z,102388.09
2023-01-29T23:20:38.453Z,102393.31
2023-01-29T23:23:05.362Z,102397.75
2023-01-29T23:25:50.656Z,102384.63
2023-01-29T23:28:17.946Z,102392.59
2023-01-29T23:30:45.414Z,102395.22
2023-01-29T23:33:12.706Z,102391.69
2023-01-29T23:35:40.032Z,102400.53
2023-01-29T23:38:06.924Z,102400.78
2023-01-29T23:40:33.874Z,102397.13
2023-01-29T23:43:00.755Z,102395.66
2023-01-29T23:45:27.671Z,102396.50
2023-01-29T23:47:54.552Z,102392.09
2023-01-29T23:50:21.455Z,102391.22
2023-01-29T23:52:48.367Z,102388.53
2023-01-29T23:55:15.465Z,102397.31
2023-01-29T23:57:42.379Z,102382.44
